Time;durP1;ratioP1;P1;durP2;ratioP2;P2;SDS_P1;SDS_P2;PMS_P1;PMS_P2;Temp;Humidity;BMP_temperature;BMP_pressure;BME280_temperature;BME280_humidity;BME280_pressure;Samples;Min_cycle;Max_cycle;Signal;HPM_P1;HPM_P2
2022/03/18 00:01:01;;;;;;;4.88;2.58;;;5.80;61.70;;;;;;5037517;28;20448;-89
2022/03/18 00:03:27;;;;;;;4.37;2.40;;;5.80;61.80;;;;;;5019129;28;20027;-89
2022/03/18 00:05:52;;;;;;;4.32;2.50;;;5.70;61.80;;;;;;5037258;28;20120;-89
2022/03/18 00:08:18;;;;;;;5.40;2.90;;;5.70;61.90;;;;;;5041927;28;20023;-89
2022/03/18 00:10:44;;;;;;;4.47;2.70;;;5.70;62.00;;;;;;5040429;28;20033;-89
2022/03/18 00:13:10;;;;;;;6.35;2.95;;;5.60;62.00;;;;;;5020996;28;20045;-89
2022/03/18 00:15:37;;;;;;;4.72;2.80;;;5.60;62.20;;;;;;5019094;28;20036;-89
2022/03/18 00:18:02;;;;;;;5.68;3.00;;;5.60;62.30;;;;;;5032549;28;20024;-89
2022/03/18 00:20:28;;;;;;;4.33;2.73;;;5.60;62.30;;;;;;5039920;28;20491;-89
2022/03/18 00:22:54;;;;;;;4.90;2.88;;;5.50;62.30;;;;;;5019343;28;20083;-89
2022/03/18 00:25:20;;;;;;;4.67;2.63;;;5.50;62.30;;;;;;5041572;28;20025;-89
2022/03/18 00:27:46;;;;;;;4.95;3.00;;;5.50;62.30;;;;;;5034458;28;20451;-89
2022/03/18 00:30:16;;;;;;;5.53;3.20;;;5.40;62.30;;;;;;5007818;28;20336;-89
2022/03/18 00:32:43;;;;;;;7.53;3.30;;;5.40;62.60;;;;;;5029903;28;20029;-89
2022/03/18 00:35:10;;;;;;;5.20;2.95;;;5.40;62.60;;;;;;5041534;28;20029;-89
2022/03/18 00:37:37;;;;;;;6.20;3.10;;;5.40;62.50;;;;;;5038396;28;20060;-89
2022/03/18 00:40:05;;;;;;;6.50;3.30;;;5.30;62.60;;;;;;5021048;28;20560;-89
2022/03/18 00:42:33;;;;;;;5.47;2.75;;;5.30;62.60;;;;;;5019165;28;20064;-89
2022/03/18 00:45:00;;;;;;;6.18;3.17;;;5.20;62.50;;;;;;5018152;28;20500;-89
2022/03/18 00:52:54;;;;;;;4.15;2.50;;;5.10;62.70;;;;;;5057202;28;20125;-89
2022/03/18 00:55:20;;;;;;;5.15;2.85;;;5.10;62.60;;;;;;5037723;28;20471;-89
2022/03/18 00:57:46;;;;;;;5.40;2.67;;;5.10;62.90;;;;;;5053995;28;20448;-89
2022/03/18 01:00:13;;;;;;;4.97;2.50;;;5.00;62.80;;;;;;5020913;28;20032;-89
2022/03/18 01:02:38;;;;;;;5.22;2.70;;;5.00;63.00;;;;;;5053952;28;20535;-89
2022/03/18 01:05:05;;;;;;;4.50;2.80;;;4.90;63.20;;;;;;5005556;28;20034;-89
2022/03/18 01:07:31;;;;;;;4.93;2.55;;;4.90;63.10;;;;;;5039378;28;20040;-89
2022/03/18 01:09:57;;;;;;;5.72;2.70;;;4.90;63.10;;;;;;5019519;28;20395;-89
2022/03/18 01:12:23;;;;;;;5.50;2.70;;;4.80;63.10;;;;;;5055674;28;20163;-89
2022/03/18 01:14:49;;;;;;;4.93;3.10;;;4.80;63.10;;;;;;5019389;28;20321;-89
2022/03/18 01:17:15;;;;;;;4.05;2.70;;;4.80;63.20;;;;;;5028963;28;20108;-89
2022/03/18 01:19:41;;;;;;;5.47;2.73;;;4.70;63.10;;;;;;5016802;28;20560;-89
2022/03/18 01:22:09;;;;;;;5.63;2.80;;;4.70;63.20;;;;;;5060708;28;20344;-89
2022/03/18 01:24:35;;;;;;;4.75;2.75;;;4.70;64.00;;;;;;5009919;28;20021;-89
2022/03/18 01:27:02;;;;;;;4.65;2.67;;;4.60;63.30;;;;;;5039702;28;20035;-89
2022/03/18 01:29:27;;;;;;;4.43;2.60;;;4.60;63.30;;;;;;5039162;28;20041;-90
2022/03/18 01:31:53;;;;;;;5.47;2.50;;;4.60;63.30;;;;;;5030387;28;25225;-89
2022/03/18 01:34:19;;;;;;;6.30;2.90;;;4.50;63.30;;;;;;5030945;28;20021;-89
2022/03/18 01:36:44;;;;;;;5.20;2.50;;;4.50;63.50;;;;;;5034566;28;20037;-88
2022/03/18 01:39:12;;;;;;;5.40;2.45;;;4.50;63.50;;;;;;5026815;28;20021;-89
2022/03/18 01:41:38;;;;;;;5.40;2.58;;;4.50;63.50;;;;;;5040335;28;20217;-89
2022/03/18 01:44:04;;;;;;;3.77;2.50;;;4.40;63.50;;;;;;5030310;28;20035;-88
2022/03/18 01:46:30;;;;;;;5.53;2.58;;;4.40;63.50;;;;;;5040956;28;20115;-88
2022/03/18 01:48:56;;;;;;;4.28;2.45;;;4.30;63.60;;;;;;5041004;28;20290;-88
2022/03/18 01:51:22;;;;;;;5.50;2.77;;;4.30;63.60;;;;;;5029876;28;20032;-88
2022/03/18 01:54:44;;;;;;;5.40;2.88;;;4.30;63.80;;;;;;5041779;28;20214;-89
2022/03/18 01:56:33;;;;;;;4.35;2.88;;;4.30;64.00;;;;;;5056734;28;20029;-88
2022/03/18 01:58:59;;;;;;;4.47;2.40;;;4.20;63.90;;;;;;5040851;28;20107;-88
2022/03/18 02:01:25;;;;;;;5.27;2.50;;;4.20;63.50;;;;;;5019194;28;20116;-88
2022/03/18 02:03:50;;;;;;;5.10;3.20;;;4.20;63.50;;;;;;5013233;28;20028;-88
2022/03/18 02:06:16;;;;;;;6.13;3.33;;;4.20;64.00;;;;;;5012804;28;20057;-88
2022/03/18 02:08:45;;;;;;;5.30;2.83;;;4.10;64.00;;;;;;5023277;28;20193;-88
2022/03/18 02:11:11;;;;;;;4.40;2.87;;;4.10;64.00;;;;;;5023336;28;20271;-88
2022/03/18 02:13:37;;;;;;;6.28;3.15;;;4.00;64.00;;;;;;5036257;28;20283;-88
2022/03/18 02:16:03;;;;;;;5.30;3.10;;;4.00;64.10;;;;;;5039753;28;20481;-89
2022/03/18 02:18:28;;;;;;;5.17;3.07;;;4.00;64.30;;;;;;5026598;28;20393;-88
2022/03/18 02:20:54;;;;;;;7.15;3.40;;;4.00;64.30;;;;;;5033632;28;20028;-89
2022/03/18 02:23:20;;;;;;;7.37;3.40;;;3.90;64.30;;;;;;5036196;28;20029;-88
2022/03/18 02:25:47;;;;;;;8.77;3.10;;;3.90;64.40;;;;;;4995962;28;20223;-88
2022/03/18 02:28:13;;;;;;;6.00;3.08;;;3.90;64.50;;;;;;5043161;28;20029;-88
2022/03/18 02:30:39;;;;;;;5.07;2.90;;;3.80;64.40;;;;;;5019368;28;20047;-88
2022/03/18 02:33:04;;;;;;;5.72;2.78;;;3.80;64.40;;;;;;5047552;28;20112;-88
2022/03/18 02:35:30;;;;;;;5.85;3.00;;;3.80;64.40;;;;;;5025244;28;20032;-88
2022/03/18 02:37:59;;;;;;;4.40;2.70;;;3.80;64.40;;;;;;5039889;28;20389;-88
2022/03/18 02:40:26;;;;;;;6.13;2.95;;;3.70;64.50;;;;;;4997633;28;20038;-88
2022/03/18 02:42:52;;;;;;;5.20;2.85;;;3.70;64.50;;;;;;5038296;28;20153;-88
2022/03/18 02:45:18;;;;;;;5.70;3.00;;;3.70;65.20;;;;;;5058488;28;20396;-88
2022/03/18 02:47:44;;;;;;;5.90;2.80;;;3.70;64.60;;;;;;5019580;28;20032;-88
2022/03/18 02:50:10;;;;;;;5.38;3.00;;;3.60;64.60;;;;;;5026753;28;20120;-88
2022/03/18 02:52:35;;;;;;;6.23;3.10;;;3.60;64.60;;;;;;5042144;28;20468;-88
2022/03/18 02:55:01;;;;;;;4.30;2.90;;;3.60;64.70;;;;;;5011250;28;20452;-89
2022/03/18 02:57:27;;;;;;;5.13;2.90;;;3.60;64.70;;;;;;5000682;28;20029;-89
2022/03/18 02:59:53;;;;;;;6.23;3.23;;;3.50;64.70;;;;;;5059175;28;20643;-88
2022/03/18 03:02:18;;;;;;;4.22;3.03;;;3.50;64.80;;;;;;5038687;28;20095;-89
2022/03/18 03:10:12;;;;;;;5.30;3.10;;;3.50;64.90;;;;;;5043633;28;20028;-89
2022/03/18 03:12:40;;;;;;;6.15;3.10;;;3.40;64.90;;;;;;5019449;28;20280;-88
2022/03/18 03:15:06;;;;;;;5.67;2.80;;;3.40;64.90;;;;;;5059576;28;20028;-89
2022/03/18 03:17:32;;;;;;;6.18;3.03;;;3.40;65.00;;;;;;5015062;28;20056;-89
2022/03/18 03:19:58;;;;;;;5.13;3.10;;;3.40;65.10;;;;;;5006690;28;20024;-89
2022/03/18 03:22:24;;;;;;;5.78;3.50;;;3.40;65.10;;;;;;5054174;28;20032;-88
2022/03/18 03:24:50;;;;;;;4.67;2.93;;;3.40;65.10;;;;;;5050544;28;20048;-89
2022/03/18 03:27:16;;;;;;;6.22;3.17;;;3.30;65.10;;;;;;5002925;28;20044;-89
2022/03/18 03:29:41;;;;;;;6.13;3.00;;;3.30;65.00;;;;;;5038844;28;20723;-89
2022/03/18 03:32:07;;;;;;;5.03;2.80;;;3.30;65.10;;;;;;5041776;28;20066;-89
2022/03/18 03:34:34;;;;;;;6.33;3.10;;;3.30;65.20;;;;;;5024955;28;20021;-89
2022/03/18 03:36:59;;;;;;;4.93;2.80;;;3.30;65.20;;;;;;5023969;28;20245;-89
2022/03/18 03:39:25;;;;;;;5.68;2.88;;;3.30;65.40;;;;;;5032138;28;20025;-89
2022/03/18 03:41:51;;;;;;;6.17;3.20;;;3.30;65.40;;;;;;5027642;28;20353;-89
2022/03/18 03:44:16;;;;;;;5.60;2.90;;;3.20;65.50;;;;;;5040594;28;20092;-89
2022/03/18 03:46:42;;;;;;;6.18;3.10;;;3.20;65.50;;;;;;5013526;28;20260;-89
2022/03/18 03:49:09;;;;;;;5.72;3.30;;;3.20;65.50;;;;;;5041675;28;20043;-89
2022/03/18 03:51:35;;;;;;;5.87;3.27;;;3.20;65.50;;;;;;5022654;28;20673;-89
2022/03/18 03:54:01;;;;;;;5.32;2.83;;;3.20;65.50;;;;;;5026663;28;20295;-89
2022/03/18 03:56:26;;;;;;;5.55;2.70;;;3.20;65.50;;;;;;4996524;28;20128;-89
2022/03/18 03:58:52;;;;;;;5.63;3.10;;;3.10;65.50;;;;;;5030212;28;20053;-89
2022/03/18 04:01:17;;;;;;;4.35;3.10;;;3.10;65.60;;;;;;5001595;28;20120;-89
2022/03/18 04:03:45;;;;;;;4.83;2.97;;;3.10;65.70;;;;;;5028917;28;20192;-89
2022/03/18 04:06:10;;;;;;;5.93;3.28;;;3.10;65.80;;;;;;5028975;28;20505;-89
2022/03/18 04:08:37;;;;;;;5.80;3.10;;;3.10;65.80;;;;;;5048350;28;20021;-89
2022/03/18 04:11:02;;;;;;;4.90;3.10;;;3.10;66.60;;;;;;5041270;28;20098;-89
2022/03/18 04:13:28;;;;;;;6.35;2.97;;;3.00;65.70;;;;;;5019592;28;20049;-89
2022/03/18 04:15:54;;;;;;;4.10;2.70;;;3.10;65.90;;;;;;5040861;28;20024;-89
2022/03/18 04:18:19;;;;;;;5.88;3.15;;;3.00;66.60;;;;;;5021289;28;20032;-88
2022/03/18 04:20:45;;;;;;;6.43;3.20;;;3.00;65.90;;;;;;5031796;28;20038;-89
2022/03/18 04:23:11;;;;;;;5.28;2.90;;;3.00;66.00;;;;;;5031289;28;20060;-89
2022/03/18 04:25:37;;;;;;;7.10;2.93;;;3.00;66.00;;;;;;5004524;28;20674;-89
2022/03/18 04:28:02;;;;;;;5.07;2.92;;;3.00;66.00;;;;;;5021547;28;20063;-89
2022/03/18 04:30:28;;;;;;;5.45;3.00;;;3.00;66.00;;;;;;4997248;28;20037;-89
2022/03/18 04:32:54;;;;;;;4.93;2.53;;;3.00;65.90;;;;;;5021431;28;20108;-89
2022/03/18 04:35:20;;;;;;;4.55;2.90;;;3.00;66.00;;;;;;5057462;28;20029;-89
2022/03/18 04:37:46;;;;;;;5.97;3.08;;;2.90;66.00;;;;;;5007013;28;20283;-89
2022/03/18 04:40:14;;;;;;;6.63;2.87;;;2.90;66.10;;;;;;5058572;28;20099;-89
2022/03/18 04:42:40;;;;;;;4.55;2.70;;;2.90;66.30;;;;;;5013271;28;20025;-89
2022/03/18 04:45:06;;;;;;;5.07;2.70;;;2.90;66.30;;;;;;5034901;28;20496;-88
2022/03/18 04:47:33;;;;;;;4.95;2.92;;;2.90;66.40;;;;;;5020544;28;20068;-89
2022/03/18 04:50:00;;;;;;;4.55;2.70;;;2.90;66.60;;;;;;5031475;28;20025;-89
2022/03/18 04:52:26;;;;;;;4.50;2.57;;;2.90;66.60;;;;;;5023297;28;20107;-88
2022/03/18 04:54:52;;;;;;;4.75;2.58;;;2.90;66.50;;;;;;5016281;28;20029;-88
2022/03/18 04:57:20;;;;;;;4.93;2.80;;;2.90;66.40;;;;;;5032923;28;20025;-88
2022/03/18 04:59:52;;;;;;;6.03;3.00;;;2.80;66.40;;;;;;5030415;28;20052;-88
2022/03/18 05:02:18;;;;;;;5.32;2.83;;;2.80;66.60;;;;;;5026833;28;20333;-89
2022/03/18 05:04:44;;;;;;;6.28;2.72;;;2.80;66.50;;;;;;5042216;28;20247;-88
2022/03/18 05:07:13;;;;;;;5.15;2.97;;;2.80;66.50;;;;;;5024608;28;20456;-88
2022/03/18 05:09:40;;;;;;;5.40;2.85;;;2.80;66.60;;;;;;5025130;28;20513;-89
2022/03/18 05:12:10;;;;;;;6.20;2.73;;;2.70;66.50;;;;;;5024595;28;20128;-88
2022/03/18 05:14:38;;;;;;;4.78;2.95;;;2.70;66.60;;;;;;5010610;28;20060;-88
2022/03/18 05:17:04;;;;;;;4.97;2.88;;;2.80;66.60;;;;;;5061384;28;20036;-88
2022/03/18 05:19:30;;;;;;;5.43;2.80;;;2.70;66.40;;;;;;5021733;28;20036;-88
2022/03/18 05:21:56;;;;;;;5.80;2.70;;;2.70;66.50;;;;;;5024345;28;20017;-88
2022/03/18 05:24:22;;;;;;;5.15;2.65;;;2.70;66.60;;;;;;5004138;28;20465;-88
2022/03/18 05:26:48;;;;;;;4.40;2.75;;;2.70;66.50;;;;;;5002774;28;20350;-88
2022/03/18 05:29:14;;;;;;;5.13;2.87;;;2.60;66.40;;;;;;5030178;28;20025;-88
2022/03/18 05:31:40;;;;;;;5.50;2.58;;;2.70;66.60;;;;;;5016194;28;20028;-88
2022/03/18 05:34:05;;;;;;;4.78;2.88;;;2.60;66.60;;;;;;5023908;28;20029;-88
2022/03/18 05:36:31;;;;;;;5.80;3.03;;;2.60;66.70;;;;;;5017155;28;20037;-88
2022/03/18 05:38:57;;;;;;;5.30;3.05;;;2.60;66.80;;;;;;5054422;28;20079;-88
2022/03/18 05:41:24;;;;;;;5.55;3.20;;;2.60;66.80;;;;;;5012743;28;20025;-88
2022/03/18 05:43:49;;;;;;;4.37;2.83;;;2.60;66.80;;;;;;5021621;28;20223;-88
2022/03/18 05:46:15;;;;;;;5.45;2.90;;;2.60;66.90;;;;;;5025133;28;20028;-89
2022/03/18 05:48:41;;;;;;;6.50;3.10;;;2.60;66.90;;;;;;5036894;28;20138;-88
2022/03/18 05:51:07;;;;;;;6.25;2.75;;;2.50;66.80;;;;;;5024261;28;20028;-88
2022/03/18 05:53:33;;;;;;;4.70;2.72;;;2.50;66.80;;;;;;5020349;28;20432;-88
2022/03/18 05:58:44;;;;;;;5.40;2.75;;;2.50;66.90;;;;;;5026806;28;20304;-88
2022/03/18 06:01:13;;;;;;;4.97;3.13;;;2.50;67.70;;;;;;4999854;28;20356;-88
2022/03/18 06:03:38;;;;;;;6.72;3.20;;;2.50;67.10;;;;;;5023153;28;20036;-88
2022/03/18 06:06:04;;;;;;;5.83;3.13;;;2.50;67.10;;;;;;5027536;28;21683;-88
2022/03/18 06:13:59;;;;;;;4.47;2.80;;;2.50;67.30;;;;;;5030767;28;20056;-88
2022/03/18 06:16:24;;;;;;;5.40;3.13;;;2.50;67.40;;;;;;5011132;28;20029;-88
2022/03/18 06:18:50;;;;;;;8.27;3.00;;;2.50;67.40;;;;;;5004004;28;20116;-88
2022/03/18 06:21:16;;;;;;;6.13;3.30;;;2.50;67.40;;;;;;5012402;28;20952;-88
2022/03/18 06:23:42;;;;;;;6.53;3.40;;;2.50;67.50;;;;;;5041532;28;20025;-88
2022/03/18 06:26:08;;;;;;;7.50;3.53;;;2.50;67.50;;;;;;5011424;28;20158;-88
2022/03/18 06:28:34;;;;;;;7.67;3.70;;;2.50;67.60;;;;;;5006478;28;20062;-88
2022/03/18 06:31:00;;;;;;;6.43;3.20;;;2.60;67.60;;;;;;5016139;28;20025;-88
2022/03/18 06:33:29;;;;;;;6.00;3.38;;;2.60;67.70;;;;;;5034775;28;20056;-88
2022/03/18 06:35:55;;;;;;;5.33;2.90;;;2.60;67.90;;;;;;5023064;28;20431;-88
2022/03/18 06:38:20;;;;;;;6.53;3.45;;;2.70;68.10;;;;;;5021191;28;20036;-88
2022/03/18 06:40:46;;;;;;;6.87;3.40;;;2.70;68.40;;;;;;5022086;28;20168;-88
2022/03/18 06:43:12;;;;;;;5.90;3.50;;;2.80;68.70;;;;;;5013627;28;20276;-88
2022/03/18 06:45:37;;;;;;;7.25;3.35;;;2.90;68.70;;;;;;5020905;28;20017;-88
2022/03/18 06:48:04;;;;;;;5.53;3.23;;;3.00;69.00;;;;;;5022562;28;20599;-87
2022/03/18 06:50:30;;;;;;;6.00;3.35;;;3.20;69.60;;;;;;5042041;28;20120;-88
2022/03/18 06:52:56;;;;;;;7.10;3.40;;;3.40;70.40;;;;;;5030295;28;20056;-88
2022/03/18 06:55:21;;;;;;;7.45;3.55;;;3.60;70.80;;;;;;5024365;28;20051;-88
2022/03/18 06:57:47;;;;;;;7.70;3.37;;;3.90;71.10;;;;;;5030321;28;20049;-88
2022/03/18 07:00:13;;;;;;;7.53;3.47;;;4.20;71.10;;;;;;5010943;28;20287;-88
2022/03/18 07:02:39;;;;;;;6.32;3.47;;;4.50;70.90;;;;;;5018942;28;20400;-88
2022/03/18 07:05:06;;;;;;;5.33;3.03;;;4.70;70.40;;;;;;5019832;28;20025;-87
2022/03/18 07:07:31;;;;;;;6.28;3.28;;;5.00;70.00;;;;;;5037719;28;20265;-87
2022/03/18 07:09:57;;;;;;;4.10;2.80;;;5.10;69.60;;;;;;5010462;28;20646;-87
2022/03/18 07:12:23;;;;;;;5.67;2.87;;;5.30;69.70;;;;;;5035610;28;20048;-87
2022/03/18 07:14:49;;;;;;;5.73;3.30;;;5.50;69.70;;;;;;5020216;28;21496;-87
2022/03/18 07:19:59;;;;;;;4.63;2.85;;;5.90;70.70;;;;;;5024786;28;20560;-87
2022/03/18 07:22:25;;;;;;;4.60;3.10;;;6.10;69.60;;;;;;5008647;28;20129;-88
2022/03/18 07:24:50;;;;;;;5.13;3.30;;;6.20;69.60;;;;;;5001201;28;20017;-87
2022/03/18 07:27:16;;;;;;;5.20;3.45;;;6.40;69.50;;;;;;5018732;28;20059;-87
2022/03/18 07:29:42;;;;;;;6.63;3.73;;;6.50;69.60;;;;;;5029903;28;20134;-88
2022/03/18 07:32:08;;;;;;;6.88;3.60;;;6.70;70.20;;;;;;5003506;28;20976;-88
2022/03/18 07:34:34;;;;;;;6.97;4.32;;;6.90;71.20;;;;;;5040442;28;20031;-88
2022/03/18 07:36:59;;;;;;;7.57;4.40;;;7.30;72.50;;;;;;5016731;28;20115;-88
2022/03/18 07:39:25;;;;;;;9.02;4.60;;;7.70;73.40;;;;;;5030954;28;20021;-88
2022/03/18 07:41:51;;;;;;;8.27;4.67;;;8.20;74.10;;;;;;5039693;28;20024;-88
2022/03/18 07:44:16;;;;;;;6.95;4.40;;;8.80;74.50;;;;;;5006761;28;20025;-89
2022/03/18 07:46:42;;;;;;;6.40;3.77;;;9.40;74.90;;;;;;5025444;28;20025;-89
2022/03/18 07:49:08;;;;;;;5.40;4.00;;;10.00;75.40;;;;;;5041104;28;20126;-89
2022/03/18 07:51:33;;;;;;;6.63;4.00;;;10.60;75.50;;;;;;5025436;28;20032;-89
2022/03/18 07:53:59;;;;;;;6.10;3.65;;;11.30;75.40;;;;;;5026359;28;20029;-90
2022/03/18 07:56:24;;;;;;;7.27;4.20;;;11.90;75.20;;;;;;5030044;28;20025;-91
2022/03/18 07:58:50;;;;;;;8.57;4.60;;;12.50;74.70;;;;;;5026208;28;20479;-90
2022/03/18 08:01:16;;;;;;;6.95;4.13;;;13.10;74.50;;;;;;5003630;28;20029;-90
2022/03/18 08:03:41;;;;;;;9.57;4.50;;;13.70;74.00;;;;;;5036628;28;20473;-90
2022/03/18 08:06:07;;;;;;;6.15;3.83;;;14.20;73.40;;;;;;5026307;28;20554;-90
2022/03/18 08:08:33;;;;;;;6.43;3.97;;;14.70;73.00;;;;;;5013966;28;20078;-91
2022/03/18 08:10:59;;;;;;;6.60;3.57;;;15.20;72.20;;;;;;5019918;28;20476;-90
2022/03/18 08:13:25;;;;;;;7.30;3.50;;;15.80;71.90;;;;;;5026131;28;20057;-91
2022/03/18 08:15:51;;;;;;;8.37;3.83;;;16.20;71.10;;;;;;5034997;28;20441;-91
2022/03/18 08:18:16;;;;;;;5.93;3.20;;;16.60;70.30;;;;;;5013040;28;20585;-91
2022/03/18 08:20:42;;;;;;;7.28;3.15;;;17.00;69.70;;;;;;5039998;28;20029;-92
2022/03/18 08:23:09;;;;;;;5.07;2.60;;;17.40;68.40;;;;;;5009695;28;20028;-91
2022/03/18 08:25:35;;;;;;;4.70;2.58;;;17.80;68.10;;;;;;5023701;28;20037;-92
2022/03/18 08:28:01;;;;;;;5.15;2.40;;;18.10;67.60;;;;;;5005880;28;20044;-92
2022/03/18 08:30:28;;;;;;;5.53;2.33;;;18.40;66.60;;;;;;5039011;28;20029;-92
2022/03/18 08:32:53;;;;;;;4.07;2.15;;;18.70;65.60;;;;;;5010886;28;20048;-92
2022/03/18 08:35:19;;;;;;;3.00;2.03;;;18.90;64.80;;;;;;5017501;28;20617;-91
2022/03/18 08:37:57;;;;;;;4.20;2.30;;;19.10;64.40;;;;;;5024597;28;20094;-90
2022/03/18 08:40:24;;;;;;;6.10;2.42;;;19.30;63.40;;;;;;5014969;28;20164;-91
2022/03/18 08:42:50;;;;;;;4.43;2.30;;;19.50;62.60;;;;;;5026433;28;20053;-92
2022/03/18 08:45:16;;;;;;;3.53;2.10;;;19.70;62.40;;;;;;5023134;28;20173;-91
2022/03/18 08:47:43;;;;;;;5.40;2.13;;;19.90;61.80;;;;;;5009488;28;20037;-92
2022/03/18 08:50:09;;;;;;;5.32;2.60;;;20.00;61.20;;;;;;5032824;28;20086;-91
2022/03/18 08:52:35;;;;;;;5.38;2.53;;;20.20;60.30;;;;;;5024021;28;20052;-92
2022/03/18 08:55:01;;;;;;;4.00;2.40;;;20.40;59.60;;;;;;5011841;28;20464;-91
2022/03/18 08:57:28;;;;;;;4.32;2.35;;;20.60;59.40;;;;;;5038464;28;20254;-89
2022/03/18 08:59:55;;;;;;;4.65;2.47;;;20.80;59.20;;;;;;5027201;28;20310;-88
2022/03/18 09:02:21;;;;;;;4.30;2.28;;;21.00;58.30;;;;;;5019388;28;20056;-89
2022/03/18 09:04:48;;;;;;;3.90;2.00;;;21.20;59.30;;;;;;5001632;28;20494;-88
2022/03/18 09:07:14;;;;;;;4.85;2.35;;;21.50;58.40;;;;;;5036399;28;20112;-88
2022/03/18 09:09:40;;;;;;;3.78;2.28;;;21.70;57.40;;;;;;5009313;28;20047;-89
2022/03/18 09:12:06;;;;;;;5.53;2.83;;;21.90;56.80;;;;;;5014664;28;20042;-89
2022/03/18 09:14:32;;;;;;;5.93;2.15;;;22.10;56.20;;;;;;5027364;28;20052;-88
2022/03/18 09:16:57;;;;;;;5.15;2.63;;;22.30;55.70;;;;;;5037173;28;20736;-89
2022/03/18 09:19:23;;;;;;;3.53;2.20;;;22.40;55.00;;;;;;5007047;28;20025;-90
2022/03/18 09:21:49;;;;;;;4.00;2.28;;;22.60;54.50;;;;;;5013712;28;20107;-90
2022/03/18 09:24:15;;;;;;;4.93;2.33;;;22.80;53.90;;;;;;5031458;28;20213;-89
2022/03/18 09:26:41;;;;;;;2.93;1.70;;;23.00;53.50;;;;;;5042768;28;20045;-90
2022/03/18 09:29:06;;;;;;;3.55;1.90;;;23.10;53.20;;;;;;5017301;28;20218;-89
2022/03/18 09:31:32;;;;;;;3.63;1.90;;;23.30;52.60;;;;;;5004407;28;20028;-93
2022/03/18 09:33:58;;;;;;;3.45;1.92;;;23.50;52.30;;;;;;5021319;28;20032;-93
2022/03/18 09:36:25;;;;;;;2.95;1.70;;;23.70;51.40;;;;;;5004051;28;20052;-90
2022/03/18 09:38:51;;;;;;;4.20;1.70;;;23.80;51.10;;;;;;5011476;28;20309;-90
2022/03/18 09:41:17;;;;;;;4.17;1.97;;;23.90;50.70;;;;;;5017229;28;20435;-89
2022/03/18 09:43:44;;;;;;;3.72;2.00;;;24.10;49.60;;;;;;5037926;28;20105;-88
2022/03/18 09:46:12;;;;;;;3.38;1.60;;;24.20;48.60;;;;;;5027329;28;20032;-90
2022/03/18 09:48:40;;;;;;;5.00;1.80;;;24.30;48.00;;;;;;5021116;28;20199;-89
2022/03/18 09:51:06;;;;;;;2.27;1.37;;;24.40;48.20;;;;;;5026031;28;20272;-89
2022/03/18 09:53:34;;;;;;;4.00;1.75;;;24.50;48.60;;;;;;5018565;28;20024;-88
2022/03/18 09:56:01;;;;;;;3.10;1.50;;;24.60;48.30;;;;;;5012611;28;20270;-89
2022/03/18 09:58:27;;;;;;;2.50;1.50;;;24.80;47.00;;;;;;5022915;28;20064;-89
2022/03/18 10:00:59;;;;;;;3.63;1.43;;;25.00;46.80;;;;;;5006008;28;23241;-90
2022/03/18 10:03:39;;;;;;;2.10;1.08;;;25.20;46.80;;;;;;5018752;28;20032;-89
2022/03/18 10:06:06;;;;;;;3.13;1.17;;;25.40;42.90;;;;;;5019105;28;20071;-88
2022/03/18 10:08:44;;;;;;;1.50;1.00;;;25.50;45.60;;;;;;5040762;28;20086;-90
2022/03/18 10:11:13;;;;;;;2.25;1.20;;;25.70;42.50;;;;;;5020722;28;20037;-88
2022/03/18 10:14:13;;;;;;;1.77;1.13;;;25.80;43.60;;;;;;5007779;28;20405;-88
2022/03/18 10:16:45;;;;;;;2.92;1.40;;;26.00;43.00;;;;;;5022221;28;20048;-89
2022/03/18 10:19:13;;;;;;;2.08;1.38;;;26.10;42.50;;;;;;5021721;28;20473;-88
2022/03/18 10:21:59;;;;;;;2.60;1.40;;;26.20;42.70;;;;;;5016001;28;20067;-88
2022/03/18 10:24:27;;;;;;;2.42;1.50;;;26.30;40.40;;;;;;5037578;28;20033;-88
2022/03/18 10:27:08;;;;;;;2.10;1.20;;;26.40;42.60;;;;;;5017613;28;20421;-88
2022/03/18 10:29:41;;;;;;;3.58;1.70;;;26.60;40.00;;;;;;5014646;28;20029;-88
2022/03/18 10:32:08;;;;;;;2.22;1.50;;;26.70;40.70;;;;;;5004835;28;21094;-88
2022/03/18 10:37:21;;;;;;;2.50;1.65;;;27.10;42.20;;;;;;5024755;28;20033;-88
2022/03/18 10:39:50;;;;;;;2.93;1.70;;;27.30;41.20;;;;;;5011559;28;20222;-90
2022/03/18 10:42:18;;;;;;;2.13;1.30;;;27.40;40.90;;;;;;5039030;28;20025;-87
2022/03/18 10:44:45;;;;;;;1.73;1.40;;;27.50;40.80;;;;;;5025401;28;20043;-87
2022/03/18 10:47:28;;;;;;;2.38;1.50;;;27.70;40.00;;;;;;5003287;28;20041;-88
2022/03/18 10:50:16;;;;;;;3.40;1.50;;;27.70;35.90;;;;;;5032064;28;20181;-87
2022/03/18 10:52:48;;;;;;;3.00;1.30;;;27.70;37.60;;;;;;5006037;28;20362;-87
2022/03/18 10:55:31;;;;;;;2.42;1.38;;;27.70;37.80;;;;;;5013350;28;20603;-87
2022/03/18 10:58:06;;;;;;;4.60;1.55;;;27.70;36.20;;;;;;5019026;28;20039;-88
2022/03/18 11:00:33;;;;;;;2.92;1.50;;;27.60;38.00;;;;;;5029128;28;20370;-89
2022/03/18 11:03:01;;;;;;;2.80;1.52;;;27.70;37.40;;;;;;5007144;28;20056;-88
2022/03/18 11:05:33;;;;;;;3.60;1.90;;;27.70;37.20;;;;;;5019795;28;20237;-87
2022/03/18 11:08:05;;;;;;;2.83;1.70;;;27.70;35.60;;;;;;5005361;28;20383;-90
2022/03/18 11:13:21;;;;;;;2.63;1.50;;;27.80;36.50;;;;;;5025371;28;20377;-87
2022/03/18 11:15:49;;;;;;;3.05;1.52;;;27.70;36.00;;;;;;5035359;28;20029;-88
2022/03/18 11:18:14;;;;;;;2.80;1.30;;;27.70;36.10;;;;;;5022232;28;20144;-88
2022/03/18 11:20:43;;;;;;;2.00;1.30;;;27.70;35.80;;;;;;5009218;28;20244;-90
2022/03/18 11:23:17;;;;;;;2.08;1.50;;;27.70;35.40;;;;;;5022994;28;20028;-89
2022/03/18 11:25:49;;;;;;;3.67;1.30;;;27.80;33.90;;;;;;5028262;28;20473;-89
2022/03/18 11:28:19;;;;;;;3.13;1.50;;;27.80;34.90;;;;;;5002921;28;20364;-87
2022/03/18 11:30:47;;;;;;;3.27;1.60;;;27.90;34.60;;;;;;5036738;28;20372;-89
2022/03/18 11:33:16;;;;;;;2.88;1.60;;;27.90;34.70;;;;;;5023920;28;20086;-88
2022/03/18 11:35:48;;;;;;;2.20;1.40;;;28.00;33.40;;;;;;5019589;28;20060;-90
2022/03/18 11:38:14;;;;;;;2.42;1.35;;;28.10;33.30;;;;;;5017792;28;20497;-90
2022/03/18 11:40:58;;;;;;;1.95;1.20;;;28.20;34.60;;;;;;5011097;28;20033;-90
2022/03/18 11:43:57;;;;;;;3.03;1.30;;;28.40;32.80;;;;;;5030201;28;20113;-87
2022/03/18 11:46:25;;;;;;;3.13;1.50;;;28.50;32.60;;;;;;5039669;28;20611;-88
2022/03/18 11:49:02;;;;;;;3.15;1.30;;;28.60;33.70;;;;;;5019619;28;20036;-88
2022/03/18 11:51:35;;;;;;;3.45;1.38;;;28.70;33.40;;;;;;5026308;28;20029;-88
2022/03/18 11:54:05;;;;;;;2.33;1.33;;;28.80;31.10;;;;;;5007703;28;20057;-88
2022/03/18 11:56:47;;;;;;;2.50;1.23;;;28.80;32.00;;;;;;5002476;28;20135;-87
2022/03/18 11:59:28;;;;;;;2.65;1.25;;;28.80;32.40;;;;;;5038596;28;20040;-87
2022/03/18 12:02:09;;;;;;;2.33;1.20;;;28.80;31.80;;;;;;5023870;28;20405;-88
2022/03/18 12:04:48;;;;;;;1.75;1.35;;;28.80;31.10;;;;;;5044382;28;20025;-89
2022/03/18 12:07:24;;;;;;;2.70;1.20;;;28.70;31.40;;;;;;5002951;28;20041;-87
2022/03/18 12:10:05;;;;;;;2.90;1.30;;;28.70;31.00;;;;;;5002085;28;20044;-88
2022/03/18 12:12:34;;;;;;;2.25;1.35;;;28.70;29.90;;;;;;5008854;28;20262;-88
2022/03/18 12:15:11;;;;;;;1.77;1.10;;;28.60;30.20;;;;;;5018404;28;20032;-88
2022/03/18 12:18:01;;;;;;;3.35;1.40;;;28.60;29.50;;;;;;5014951;28;20044;-87
2022/03/18 12:20:30;;;;;;;3.70;1.10;;;28.50;30.40;;;;;;5001640;28;20472;-87
2022/03/18 12:22:58;;;;;;;2.33;1.50;;;28.50;30.70;;;;;;5026898;28;20539;-87
2022/03/18 12:25:24;;;;;;;1.73;1.13;;;28.50;30.10;;;;;;5000293;28;20307;-87
2022/03/18 12:27:51;;;;;;;1.85;1.10;;;28.50;30.30;;;;;;5006573;28;20131;-90
2022/03/18 12:30:20;;;;;;;1.50;1.10;;;28.40;30.10;;;;;;5016379;28;20242;-86
2022/03/18 12:32:55;;;;;;;3.08;1.35;;;28.40;30.50;;;;;;5013577;28;20037;-87
2022/03/18 12:35:28;;;;;;;1.50;1.10;;;28.40;29.90;;;;;;5008440;28;20037;-88
2022/03/18 12:38:13;;;;;;;2.13;1.30;;;28.50;30.10;;;;;;5005806;28;20032;-87
2022/03/18 12:40:42;;;;;;;3.22;1.40;;;28.50;29.20;;;;;;5002731;28;20038;-88
2022/03/18 12:43:08;;;;;;;2.42;1.25;;;28.50;29.10;;;;;;4994196;28;20016;-87
2022/03/18 12:45:37;;;;;;;1.90;1.20;;;28.50;28.90;;;;;;5029019;28;20225;-87
2022/03/18 12:48:15;;;;;;;2.23;1.20;;;28.40;28.90;;;;;;5019250;28;21132;-88
2022/03/18 12:50:44;;;;;;;3.03;1.38;;;28.40;28.10;;;;;;5033990;28;20025;-89
2022/03/18 12:53:22;;;;;;;2.95;1.35;;;28.40;29.10;;;;;;4995716;28;20124;-86
2022/03/18 12:55:51;;;;;;;1.30;1.10;;;28.40;29.20;;;;;;5019440;28;20416;-87
2022/03/18 12:58:18;;;;;;;2.05;1.10;;;28.40;29.30;;;;;;4998381;28;20249;-86
2022/03/18 13:00:53;;;;;;;2.40;1.30;;;28.50;28.90;;;;;;5027764;28;20087;-87
2022/03/18 13:03:25;;;;;;;2.28;1.20;;;28.50;29.30;;;;;;5009798;28;20336;-87
2022/03/18 13:05:52;;;;;;;2.28;1.30;;;28.60;29.10;;;;;;5030923;28;20029;-88
2022/03/18 13:08:21;;;;;;;2.30;1.30;;;28.70;29.50;;;;;;5023330;28;20408;-87
2022/03/18 13:10:58;;;;;;;1.90;1.27;;;28.80;29.10;;;;;;5010355;28;20029;-87
2022/03/18 13:13:27;;;;;;;1.60;1.10;;;28.90;28.30;;;;;;5004631;28;20053;-87
2022/03/18 13:16:05;;;;;;;1.92;1.50;;;29.00;29.50;;;;;;5018766;28;20152;-87
2022/03/18 13:18:33;;;;;;;3.38;1.50;;;29.00;28.60;;;;;;5032354;28;20511;-86
2022/03/18 13:21:00;;;;;;;2.15;1.20;;;28.90;28.40;;;;;;5021148;28;20458;-87
2022/03/18 13:23:27;;;;;;;1.88;1.30;;;28.80;28.50;;;;;;5023117;28;21349;-88